Terminal Aerodrome Forecast
Issued by NWS Shreveport, LA

Home | Current Version | Previous Version | Text Only | Print | Product List | Glossary On
Versions: 1 2 3 4 5 6 7 8 9 10 11 12 13 14 15 16 17
878
FTUS44 KSHV 291153
TAFSHV
TAF
KSHV 291153Z 2912/3012 19006KT P6SM VCTS SCT025 BKN035 OVC070CB
      TEMPO 2912/2914 VRB20G30KT 3SM TSRA BR FEW015 BKN030 OVC060CB
     FM291400 VRB10G20KT 4SM -TSRA BR SCT030 OVC070CB
     FM291800 16015G25KT P6SM VCTS BKN035 OVC070CB
     FM300000 18011KT P6SM VCTS BKN035 OVC050CB
     FM300600 20008KT P6SM BKN025
     FM300900 26006KT P6SM BKN025=

USA.gov is the U.S. government's official web portal to all federal, state and local government web resources and services.